Terminal Aerodrome Forecast
Issued by NWS

Home | Current Version | Previous Version | Text Only | Print | Product List | Glossary On
Versions: 1 2 3 4 5 6 7 8 9 10 11 12 13 14 15 16 17 18 19 20 21 22
000
FTUS42 KTBW 042100 AAA
TAFPGD
TAF AMD
KPGD 042140Z 0422/0518 23012KT P6SM FEW045 SCT250
     FM050100 21004KT P6SM FEW045 SCT250
     FM050400 14003KT P6SM FEW040 SCT250
     FM050900 13005KT 1SM BCFG SCT005
     FM051400 15007KT P6SM SCT020 BKN035=

USA.gov is the U.S. government's official web portal to all federal, state and local government web resources and services.